Time;durP1;ratioP1;P1;durP2;ratioP2;P2;SDS_P1;SDS_P2;PMS_P1;PMS_P2;Temp;Humidity;BMP_temperature;BMP_pressure;BME280_temperature;BME280_humidity;BME280_pressure;Samples;Min_cycle;Max_cycle;Signal;HPM_P1;HPM_P2
2022/04/28 00:01:53;;;;;;;3.50;3.07;;;13.30;70.40;;;13.69;48.27;99486.16;4924173;28;124823;-76
2022/04/28 00:22:47;;;;;;;4.00;3.10;;;11.70;70.40;;;13.38;48.97;99491.66;4962631;28;114940;-74
2022/04/28 00:28:56;;;;;;;4.00;3.60;;;12.00;71.10;;;13.33;49.20;99493.75;4962082;28;124747;-73
2022/04/28 00:35:04;;;;;;;4.30;3.90;;;15.00;74.40;;;13.31;49.43;99493.25;4962722;28;114840;-73
2022/04/28 00:41:13;;;;;;;4.00;3.60;;;12.80;72.80;;;13.25;49.66;99498.06;4961946;28;124696;-74
2022/04/28 00:47:22;;;;;;;7.07;3.60;;;12.70;73.10;;;13.19;49.59;99497.34;4962240;28;116052;-73
2022/04/28 00:53:35;;;;;;;4.40;4.00;;;12.70;73.50;;;13.11;49.62;99500.88;4961721;28;124872;-74
2022/04/28 00:59:46;;;;;;;4.47;3.13;;;12.60;73.80;;;13.03;50.21;99496.06;4962129;28;114944;-73
2022/04/28 01:08:31;;;;;;;3.70;3.30;;;12.40;74.30;;;12.96;50.47;99495.66;6035380;23;98600;-78
2022/04/28 01:14:44;;;;;;;3.77;3.47;;;10.50;72.70;;;12.89;50.36;99496.06;4961010;28;126568;-79
2022/04/28 01:20:53;;;;;;;4.23;3.83;;;10.80;73.40;;;12.80;50.35;99492.41;4961342;28;115286;-76
2022/04/28 01:27:05;;;;;;;3.90;3.50;;;10.80;73.70;;;12.73;50.66;99501.13;4961273;28;125132;-74
2022/04/28 01:33:14;;;;;;;4.00;3.50;;;10.80;74.00;;;12.67;50.91;99498.78;4961752;28;115104;-73
2022/04/28 01:39:27;;;;;;;4.50;3.57;;;10.40;74.00;;;12.62;51.05;99496.91;4961221;28;125125;-74
2022/04/28 01:45:38;;;;;;;4.33;3.40;;;10.50;74.40;;;12.58;51.31;99504.22;4960868;28;116222;-74
2022/04/28 01:58:13;;;;;;;4.30;3.63;;;12.00;76.50;;;12.40;51.33;99505.16;4961331;28;115251;-74
2022/04/28 02:12:45;;;;;;;4.67;3.97;;;11.80;77.30;;;12.26;51.70;99505.97;5492649;23;97735;-74
2022/04/28 02:18:53;;;;;;;5.37;4.40;;;10.00;75.90;;;12.21;52.03;99514.38;4960646;28;124879;-73
2022/04/28 02:25:07;;;;;;;6.80;4.60;;;11.80;78.10;;;12.13;51.98;99512.28;4960891;28;115045;-73
2022/04/28 02:31:15;;;;;;;8.37;5.17;;;9.70;78.00;;;11.89;52.75;99513.25;4961027;28;124781;-74
2022/04/28 02:37:24;;;;;;;5.53;5.03;;;10.00;77.50;;;11.82;52.92;99521.13;4964667;28;114933;-74
2022/04/28 02:43:34;;;;;;;4.60;4.17;;;13.20;81.00;;;11.81;52.71;99519.47;4963814;28;124794;-74
2022/04/28 02:49:43;;;;;;;5.40;4.43;;;11.40;79.50;;;11.78;53.20;99517.31;4963940;28;115934;-74
2022/04/28 02:55:52;;;;;;;4.40;4.00;;;11.10;79.40;;;11.76;52.88;99519.56;4963582;28;124737;-76
2022/04/28 03:02:03;;;;;;;6.00;4.70;;;10.30;78.80;;;11.68;53.19;99517.47;4963714;28;114869;-90
2022/04/28 03:11:57;;;;;;;5.00;4.50;;;11.10;80.00;;;11.61;53.43;99528.94;4963157;28;115279;-73
2022/04/28 03:18:25;;;;;;;4.70;4.10;;;11.10;80.90;;;11.49;53.31;99531.34;4924221;28;125185;-73
2022/04/28 03:24:33;;;;;;;4.27;3.60;;;11.00;80.50;;;11.45;53.37;99535.84;4924873;28;116611;-73
2022/04/28 03:30:42;;;;;;;4.37;3.97;;;10.90;80.70;;;11.40;53.85;99538.69;4924357;28;125244;-74
2022/04/28 03:36:51;;;;;;;5.77;3.87;;;10.90;81.00;;;11.36;53.74;99541.22;4924736;28;115263;-75
2022/04/28 03:43:00;;;;;;;5.33;3.80;;;10.80;81.10;;;11.36;54.04;99540.41;4924215;28;125146;-74
2022/04/28 03:49:09;;;;;;;4.63;3.87;;;10.80;81.30;;;11.34;54.12;99549.00;4924061;28;116225;-73
2022/04/28 03:55:38;;;;;;;5.00;3.50;;;10.80;81.50;;;11.31;53.95;99546.84;4924053;28;126734;-72
2022/04/28 04:08:05;;;;;;;4.10;3.70;;;9.20;81.30;;;11.28;54.15;99553.78;4943002;28;125134;-73
2022/04/28 04:14:16;;;;;;;3.43;3.10;;;9.70;81.80;;;11.27;54.28;99552.13;4943448;28;115201;-74
2022/04/28 04:20:27;;;;;;;3.50;3.20;;;10.70;81.80;;;11.24;54.09;99555.50;4942496;28;125165;-74
2022/04/28 04:26:36;;;;;;;4.70;3.83;;;9.20;81.50;;;11.25;53.91;99572.91;4943280;28;115132;-74
2022/04/28 04:32:44;;;;;;;3.93;3.63;;;10.00;81.20;;;11.22;53.75;99576.28;4942704;28;125034;-74
2022/04/28 04:38:53;;;;;;;4.30;3.90;;;10.70;82.00;;;11.20;54.14;99584.91;4942872;28;115295;-78
2022/04/28 04:45:01;;;;;;;5.30;3.93;;;10.60;82.10;;;11.17;54.60;99579.94;4942346;28;124955;-74
2022/04/28 04:51:10;;;;;;;5.60;4.70;;;10.60;82.80;;;11.16;54.35;99588.53;4942035;28;116246;-83
2022/04/28 04:53:56;;;;;;;7.77;5.33;;;10.60;82.80;;;11.13;54.56;99595.50;4941799;28;115450;-74
2022/04/28 05:00:07;;;;;;;5.87;5.27;;;10.50;82.80;;;11.04;54.50;99611.06;4942210;28;124733;-78
2022/04/28 05:02:52;;;;;;;6.23;5.17;;;10.50;83.00;;;11.08;54.54;99603.03;4940278;28;114474;-85
2022/04/28 05:09:01;;;;;;;7.67;5.43;;;10.50;83.10;;;11.05;54.86;99607.22;4887314;28;125063;-92
2022/04/28 05:11:29;;;;;;;8.47;5.87;;;10.50;83.20;;;11.05;54.58;99616.31;4883503;28;123419;-78
2022/04/28 05:17:44;;;;;;;6.07;5.10;;;10.50;83.30;;;11.07;54.90;99616.03;4883698;28;114953;-90
2022/04/28 05:20:32;;;;;;;8.00;5.60;;;10.50;83.50;;;11.11;55.10;99619.84;4890613;28;124944;-91
2022/04/28 05:23:56;;;;;;;9.80;5.80;;;10.60;83.50;;;11.14;54.86;99621.19;4899250;28;123567;-80
2022/04/28 05:27:05;;;;;;;7.13;5.57;;;10.60;83.50;;;11.20;54.90;99636.59;4881259;28;115014;-79
2022/04/28 05:33:13;;;;;;;4.80;4.30;;;10.70;83.60;;;11.37;54.87;99636.13;4902925;28;125035;-89
2022/04/28 05:36:00;;;;;;;5.57;4.60;;;10.70;83.70;;;11.49;54.30;99640.09;4902349;28;124482;-86
2022/04/28 05:42:11;;;;;;;5.10;4.10;;;10.90;83.80;;;11.67;54.60;99634.88;4883916;28;114973;-90
2022/04/28 05:48:20;;;;;;;6.33;4.90;;;11.10;84.30;;;11.84;54.53;99640.69;4896003;28;124757;-81
2022/04/28 05:54:29;;;;;;;6.43;5.00;;;11.20;83.90;;;11.88;54.27;99644.53;4891032;28;115930;-90
2022/04/28 05:56:57;;;;;;;5.83;5.30;;;11.20;83.80;;;11.94;54.01;99648.88;4884968;28;122090;-92
2022/04/28 06:03:12;;;;;;;5.47;4.50;;;11.40;84.00;;;12.15;54.04;99643.84;4904857;28;115419;-80
2022/04/28 06:05:57;;;;;;;6.00;5.23;;;11.40;84.00;;;12.23;53.84;99656.19;4924728;28;114788;-77
2022/04/28 06:19:29;;;;;;;7.40;6.37;;;11.70;83.60;;;12.44;53.70;99667.75;4922143;28;114256;-89
2022/04/28 06:25:38;;;;;;;9.77;6.67;;;11.90;83.50;;;12.56;53.38;99664.50;4940881;28;125967;-93
2022/04/28 06:32:08;;;;;;;6.57;5.57;;;12.00;83.50;;;12.72;53.65;99668.63;4936733;28;115036;-91
2022/04/28 06:35:14;;;;;;;11.93;7.17;;;12.10;83.50;;;12.80;53.56;99667.91;4919432;28;123955;-85
2022/04/28 06:41:23;;;;;;;7.73;6.80;;;12.20;83.50;;;12.97;53.07;99680.38;4921629;28;115284;-75
2022/04/28 06:51:23;;;;;;;10.07;6.50;;;12.50;83.10;;;13.24;52.95;99677.63;4921330;28;124868;-76
2022/04/28 06:57:31;;;;;;;6.47;5.77;;;12.70;82.80;;;13.44;52.42;99683.91;4920376;28;115878;-89
2022/04/28 06:59:58;;;;;;;8.20;6.20;;;12.80;82.80;;;13.54;52.11;99677.31;4931117;28;127384;-91
2022/04/28 07:02:27;;;;;;;8.63;6.90;;;12.80;82.50;;;13.62;51.83;99685.75;4908754;28;123704;-89
2022/04/28 07:05:33;;;;;;;9.67;6.57;;;12.90;82.10;;;13.65;51.85;99685.13;4921780;28;113727;-91
2022/04/28 07:08:36;;;;;;;7.00;5.80;;;13.00;81.90;;;13.77;51.62;99692.09;4923215;28;113354;-89
2022/04/28 07:11:03;;;;;;;8.10;5.13;;;13.10;81.80;;;13.86;51.48;99679.09;4922838;28;123205;-90
2022/04/28 07:13:30;;;;;;;6.77;6.03;;;13.20;81.70;;;13.97;51.20;99677.75;4921687;28;123173;-90
2022/04/28 07:16:15;;;;;;;8.97;5.50;;;13.30;81.50;;;14.08;51.02;99683.88;4918912;28;113489;-90
2022/04/28 07:18:43;;;;;;;6.97;5.33;;;13.40;81.20;;;14.17;50.83;99678.38;4921371;28;113376;-89
2022/04/28 07:21:12;;;;;;;9.00;5.90;;;13.50;81.10;;;14.25;50.70;99685.97;4910216;28;123212;-90
2022/04/28 07:23:39;;;;;;;8.63;5.80;;;13.40;80.70;;;14.33;50.56;99686.03;4922232;28;122967;-90
2022/04/28 07:26:05;;;;;;;6.03;4.83;;;13.60;80.70;;;14.46;50.48;99683.50;4921243;28;114342;-91
2022/04/28 07:28:52;;;;;;;6.37;4.40;;;13.70;80.80;;;14.61;50.17;99679.53;4911315;28;113152;-90
2022/04/28 07:31:58;;;;;;;7.97;5.80;;;13.90;80.70;;;14.69;49.87;99681.56;4929942;28;123551;-91
2022/04/28 07:34:45;;;;;;;6.50;5.20;;;13.90;80.00;;;14.78;49.60;99682.44;4919040;28;124404;-91
2022/04/28 07:44:53;;;;;;;5.20;4.50;;;14.30;79.60;;;15.11;49.37;99694.03;4932664;28;125134;-93
2022/04/28 07:51:03;;;;;;;5.63;5.00;;;14.50;79.00;;;15.27;48.53;99693.63;4923591;28;116297;-92
2022/04/28 07:53:32;;;;;;;5.40;4.60;;;14.50;78.40;;;15.32;48.49;99685.94;4911900;28;113406;-91
2022/04/28 07:56:15;;;;;;;5.30;4.60;;;14.60;78.30;;;15.41;48.13;99684.00;4924998;28;123441;-91
2022/04/28 07:58:44;;;;;;;5.60;4.80;;;14.70;78.20;;;15.51;48.10;99696.00;4914521;28;122623;-92
2022/04/28 08:01:31;;;;;;;5.50;4.60;;;14.80;77.90;;;15.58;47.88;99693.53;4918752;28;113054;-91
2022/04/28 08:04:16;;;;;;;4.17;3.77;;;14.90;77.60;;;15.66;47.64;99695.53;4922494;28;113472;-92
2022/04/28 08:06:43;;;;;;;5.10;4.30;;;15.00;77.60;;;15.76;47.39;99689.69;4929164;28;123749;-92
2022/04/28 08:09:09;;;;;;;7.77;4.80;;;15.00;77.10;;;15.81;46.81;99686.75;4934168;28;123610;-91
2022/04/28 08:11:38;;;;;;;6.70;4.90;;;15.10;76.50;;;15.84;46.44;99697.25;4917899;28;113393;-93
2022/04/28 08:14:04;;;;;;;6.90;5.43;;;15.20;75.50;;;15.89;46.34;99694.28;4919043;28;113932;-91
2022/04/28 08:16:32;;;;;;;5.70;4.70;;;15.20;75.20;;;15.93;45.98;99696.44;4917881;28;123311;-90
2022/04/28 08:19:02;;;;;;;9.03;4.83;;;15.30;75.10;;;15.99;45.86;99695.16;4922984;28;123781;-90
2022/04/28 08:21:29;;;;;;;5.03;4.53;;;15.30;74.80;;;16.06;45.80;99703.81;4917764;28;115046;-90
2022/04/28 08:23:56;;;;;;;4.40;3.63;;;15.40;74.80;;;16.15;46.15;99701.88;4919194;28;113340;-92
2022/04/28 08:26:24;;;;;;;5.60;4.90;;;15.50;75.00;;;16.26;46.11;99705.16;4916718;28;124159;-93
2022/04/28 08:28:51;;;;;;;4.70;4.07;;;15.50;74.90;;;16.34;45.60;99699.56;4920726;28;123277;-92
2022/04/28 08:31:43;;;;;;;4.40;3.97;;;15.60;74.70;;;16.40;45.37;99700.22;4921052;28;114558;-91
2022/04/28 08:34:14;;;;;;;5.13;4.03;;;15.70;74.10;;;16.47;44.95;99702.50;4908383;28;114705;-92
2022/04/28 08:36:41;;;;;;;3.90;3.10;;;15.80;73.80;;;16.54;45.26;99700.84;4922057;28;123091;-91
2022/04/28 08:39:09;;;;;;;3.80;3.37;;;15.90;73.70;;;16.65;44.81;99704.13;4908722;28;121908;-94
2022/04/28 08:41:59;;;;;;;3.40;3.10;;;15.90;73.30;;;16.69;43.92;99693.94;4921417;28;114575;-92
2022/04/28 08:44:27;;;;;;;4.23;3.23;;;16.00;72.00;;;16.74;43.78;99702.16;4921450;28;114514;-92
2022/04/28 08:46:54;;;;;;;4.10;3.60;;;16.10;72.20;;;16.84;43.96;99692.63;4922719;28;123611;-92
2022/04/28 08:50:00;;;;;;;3.90;3.53;;;16.10;72.00;;;16.90;43.62;99698.84;4919708;28;123283;-92
2022/04/28 08:52:30;;;;;;;4.33;3.43;;;17.90;73.20;;;16.98;43.39;99698.03;4918928;28;114196;-93
2022/04/28 08:54:59;;;;;;;5.87;3.90;;;16.30;71.20;;;17.02;43.11;99695.38;4918208;28;114068;-93
2022/04/28 08:57:46;;;;;;;6.00;4.50;;;16.40;71.10;;;17.10;43.08;99697.31;4900740;28;124181;-92
2022/04/28 09:00:13;;;;;;;5.43;4.00;;;16.50;70.60;;;17.14;42.64;99687.09;4920609;28;123944;-92
2022/04/28 09:02:40;;;;;;;4.30;3.63;;;16.50;69.90;;;17.17;42.58;99692.84;4917549;28;112629;-93
2022/04/28 09:05:10;;;;;;;3.43;2.70;;;16.50;69.80;;;17.22;42.44;99689.03;4915873;28;113539;-93
2022/04/28 09:07:42;;;;;;;4.70;4.00;;;16.60;69.70;;;17.30;42.26;99690.16;4915262;28;124867;-94
2022/04/28 09:10:32;;;;;;;4.63;3.27;;;16.70;69.50;;;17.37;42.33;99696.03;4917126;28;123321;-94
2022/04/28 09:16:09;;;;;;;4.43;3.97;;;16.80;68.60;;;17.46;41.00;99696.81;4907090;28;114031;-93
2022/04/28 09:18:40;;;;;;;7.70;3.17;;;16.80;66.50;;;17.50;40.45;99700.59;4919352;28;122905;-93
2022/04/28 09:22:08;;;;;;;3.43;3.13;;;16.90;67.10;;;17.53;39.43;99694.31;4917649;28;122996;-93
2022/04/28 09:25:13;;;;;;;3.17;2.87;;;16.90;64.80;;;17.55;39.40;99697.59;4915856;28;113682;-93
2022/04/28 09:28:18;;;;;;;6.03;2.40;;;17.00;64.20;;;17.55;38.77;99692.00;4922687;28;111975;-94
2022/04/28 09:30:50;;;;;;;2.37;2.17;;;17.00;63.30;;;17.60;37.29;99680.66;4918514;28;122460;-93
2022/04/28 09:33:18;;;;;;;3.93;2.97;;;17.00;60.70;;;17.67;36.69;99686.50;4920489;28;124002;-93
2022/04/28 09:35:51;;;;;;;4.67;2.70;;;17.10;59.80;;;17.73;36.33;99684.34;4933420;28;115616;-92
2022/04/28 09:38:36;;;;;;;2.80;2.50;;;17.10;59.20;;;17.79;36.61;99685.00;4917704;28;113941;-91
2022/04/28 09:43:58;;;;;;;3.60;2.57;;;17.20;57.20;;;17.87;35.38;99686.91;4925628;28;123853;-94
2022/04/28 09:46:25;;;;;;;2.80;2.50;;;17.30;56.80;;;17.94;35.11;99678.78;4932156;28;114209;-92
2022/04/28 09:48:53;;;;;;;5.13;2.70;;;17.30;56.60;;;18.00;34.52;99685.84;4923261;28;112757;-92
2022/04/28 09:51:25;;;;;;;3.73;2.60;;;17.40;55.10;;;18.05;34.47;99677.25;4909081;28;122812;-91
2022/04/28 09:53:52;;;;;;;4.43;2.77;;;17.40;55.30;;;18.12;34.23;99681.47;4919312;28;123270;-92
2022/04/28 09:56:28;;;;;;;3.53;2.43;;;17.50;54.60;;;18.18;33.88;99675.31;4922153;28;114726;-92
2022/04/28 09:58:59;;;;;;;3.37;3.00;;;17.60;54.10;;;18.23;33.77;99688.28;4902392;28;112395;-91
2022/04/28 10:01:29;;;;;;;5.30;3.23;;;17.60;53.50;;;18.26;33.94;99680.00;4911171;28;123108;-91
2022/04/28 10:03:57;;;;;;;3.53;2.90;;;17.70;53.70;;;18.30;33.69;99671.78;4901569;28;123723;-91
2022/04/28 10:06:26;;;;;;;9.20;2.93;;;17.70;53.20;;;18.32;33.78;99673.06;4891938;28;113517;-92
2022/04/28 10:08:55;;;;;;;3.40;2.90;;;17.80;53.30;;;18.38;32.58;99684.06;4896473;28;113115;-91
2022/04/28 10:11:24;;;;;;;3.30;2.93;;;17.80;51.90;;;18.43;33.58;99681.84;4909860;28;124639;-92
2022/04/28 10:13:52;;;;;;;4.50;2.77;;;17.90;52.80;;;18.50;32.98;99670.09;4909666;28;123894;-92
2022/04/28 10:16:23;;;;;;;3.50;2.53;;;17.90;51.60;;;18.52;33.04;99670.56;4910144;28;113276;-92
2022/04/28 10:19:05;;;;;;;3.40;2.60;;;17.90;51.90;;;18.53;32.58;99667.41;4897515;28;113441;-93
2022/04/28 10:22:00;;;;;;;3.00;2.70;;;18.00;50.70;;;18.54;32.58;99649.47;4911999;28;122202;-92
2022/04/28 10:33:24;;;;;;;3.33;2.47;;;18.10;49.80;;;18.69;32.42;99655.56;4912316;28;125116;-93
2022/04/28 10:35:51;;;;;;;5.00;2.43;;;18.10;50.20;;;18.76;31.94;99658.66;4910659;28;124440;-92
2022/04/28 10:38:30;;;;;;;3.17;2.33;;;18.20;49.50;;;18.83;32.30;99653.28;4909664;28;114180;-92
2022/04/28 10:41:26;;;;;;;3.30;2.60;;;18.30;50.10;;;18.87;31.22;99648.66;4912126;28;112957;-93
2022/04/28 10:43:53;;;;;;;3.30;2.63;;;18.30;48.10;;;18.90;31.22;99650.75;4894021;28;124012;-92
2022/04/28 10:46:22;;;;;;;3.13;2.70;;;18.30;48.00;;;18.94;31.63;99651.72;4909820;28;123914;-92
2022/04/28 10:49:08;;;;;;;4.20;3.40;;;18.40;48.70;;;19.02;31.78;99644.38;4913021;28;114606;-93
2022/04/28 10:51:36;;;;;;;3.10;2.70;;;18.50;48.80;;;19.10;31.86;99639.81;4907676;28;113013;-92
2022/04/28 10:54:21;;;;;;;2.93;2.07;;;18.50;49.00;;;19.18;31.67;99638.88;4914424;28;124569;-93
2022/04/28 10:57:02;;;;;;;2.47;2.27;;;18.60;48.80;;;19.25;31.56;99652.31;4913523;28;122952;-93
2022/04/28 10:59:35;;;;;;;3.30;2.50;;;18.60;48.60;;;19.32;31.76;99653.38;4904285;28;113884;-91
2022/04/28 11:02:08;;;;;;;3.63;2.67;;;18.70;48.80;;;19.41;31.35;99647.63;4910172;28;114638;-92
2022/04/28 11:04:34;;;;;;;2.80;2.37;;;18.80;48.50;;;19.48;30.49;99644.22;4909272;28;123715;-93
2022/04/28 11:07:08;;;;;;;10.03;2.70;;;18.90;47.40;;;19.50;29.95;99644.72;4913748;28;122709;-91
2022/04/28 11:09:38;;;;;;;3.73;2.93;;;18.90;45.80;;;19.53;30.36;99646.81;4910807;28;113675;-92
2022/04/28 11:12:18;;;;;;;2.63;2.23;;;19.00;46.40;;;19.60;30.56;99652.66;4909571;28;113203;-92
2022/04/28 11:15:08;;;;;;;3.03;2.50;;;19.00;47.00;;;19.68;30.52;99646.13;4910700;28;124084;-92
2022/04/28 11:17:37;;;;;;;4.80;2.50;;;19.20;46.50;;;19.77;29.97;99655.25;4901951;28;123840;-92
2022/04/28 11:20:10;;;;;;;2.83;2.40;;;19.20;46.00;;;19.83;29.71;99648.22;4900202;28;114307;-93
2022/04/28 11:22:40;;;;;;;2.67;2.20;;;19.20;45.40;;;19.91;30.29;99654.00;4898138;28;114235;-92
2022/04/28 11:25:15;;;;;;;6.47;2.80;;;19.30;46.10;;;20.02;29.73;99646.75;4905171;28;124067;-93
2022/04/28 11:27:45;;;;;;;3.00;2.67;;;19.40;45.40;;;20.08;29.13;99648.94;4902821;28;123590;-92
2022/04/28 11:30:16;;;;;;;2.80;2.50;;;19.50;44.90;;;20.14;29.15;99652.31;4893223;28;114142;-92
2022/04/28 11:32:51;;;;;;;3.10;2.50;;;19.60;44.50;;;20.23;29.05;99650.19;4911127;28;114108;-89
2022/04/28 11:35:19;;;;;;;3.40;2.90;;;19.60;45.00;;;20.34;28.98;99649.66;4911314;28;124168;-90
2022/04/28 11:37:53;;;;;;;2.80;2.37;;;19.70;44.60;;;20.44;28.81;99651.97;4909463;28;124006;-92
2022/04/28 11:40:20;;;;;;;2.83;2.50;;;19.80;43.70;;;20.49;29.24;99654.53;4913666;28;113340;-92
2022/04/28 11:42:57;;;;;;;2.67;2.47;;;19.90;44.60;;;20.59;29.21;99645.63;4908296;28;114151;-90
2022/04/28 11:45:26;;;;;;;3.17;2.13;;;20.00;44.70;;;20.71;29.17;99647.53;4910347;28;124209;-92
2022/04/28 11:48:34;;;;;;;3.47;2.37;;;20.10;44.60;;;20.86;29.15;99641.13;5031464;28;96991;-87
2022/04/28 11:51:05;;;;;;;4.10;2.53;;;20.20;44.60;;;20.99;28.11;99646.66;5022527;28;107940;-88
2022/04/28 11:53:45;;;;;;;4.07;2.67;;;20.40;43.60;;;21.07;28.21;99646.50;5020647;27;124801;-86
2022/04/28 11:56:25;;;;;;;3.37;2.70;;;20.40;43.20;;;21.18;27.96;99643.94;5004321;28;122977;-89
2022/04/28 11:58:53;;;;;;;2.87;2.20;;;20.60;42.90;;;21.25;27.51;99646.09;4985780;28;107189;-87
2022/04/28 12:01:21;;;;;;;2.77;2.37;;;20.60;41.90;;;21.32;28.04;99632.25;4982609;28;108429;-89
2022/04/28 12:03:54;;;;;;;4.50;2.63;;;20.70;42.70;;;21.43;27.51;99638.16;4988206;28;123218;-88
2022/04/28 12:06:23;;;;;;;2.43;2.13;;;20.80;42.00;;;21.51;27.67;99646.38;4984094;28;124506;-90
2022/04/28 12:08:55;;;;;;;5.10;2.63;;;20.90;42.10;;;21.61;27.22;99651.47;5005451;28;106684;-88
2022/04/28 12:14:23;;;;;;;10.03;2.83;;;21.10;42.00;;;21.86;27.29;99645.59;4970419;28;124179;-87
2022/04/28 12:20:02;;;;;;;4.03;2.50;;;21.30;41.50;;;22.13;27.24;99628.88;4990566;28;108078;-88
2022/04/28 12:22:39;;;;;;;2.27;1.90;;;21.50;41.80;;;22.25;27.04;99625.94;4985853;28;106898;-86
2022/04/28 12:25:11;;;;;;;9.10;3.23;;;21.60;41.50;;;22.27;25.95;99626.38;4986444;28;124688;-86
2022/04/28 12:27:44;;;;;;;3.30;2.33;;;21.60;39.20;;;22.26;26.17;99631.19;4985818;28;123853;-87
2022/04/28 12:30:14;;;;;;;4.90;2.60;;;21.60;39.80;;;22.32;25.66;99634.53;4990002;28;107461;-86
2022/04/28 12:32:53;;;;;;;3.80;2.13;;;21.70;39.10;;;22.37;25.77;99631.41;4988849;28;107565;-87
2022/04/28 12:35:37;;;;;;;3.03;2.30;;;21.70;39.40;;;22.47;26.29;99625.19;4993092;28;123363;-88
2022/04/28 12:38:06;;;;;;;2.60;2.30;;;21.90;39.70;;;22.57;25.66;99622.94;4977643;28;123733;-86
2022/04/28 12:40:41;;;;;;;3.57;2.60;;;21.90;38.80;;;22.63;25.46;99615.81;4986657;28;107522;-88
2022/04/28 12:43:09;;;;;;;4.33;2.00;;;22.00;38.70;;;22.69;25.13;99628.41;4991759;28;107281;-87
2022/04/28 12:45:41;;;;;;;2.70;2.20;;;22.10;38.30;;;22.72;25.19;99607.94;4974410;28;125211;-88
2022/04/28 12:48:26;;;;;;;18.00;4.43;;;22.10;37.80;;;22.75;25.07;99612.81;4989125;28;123648;-88
2022/04/28 12:51:13;;;;;;;6.73;3.17;;;22.10;37.60;;;22.83;25.14;99610.94;4989587;28;107504;-89
2022/04/28 12:53:43;;;;;;;5.77;2.80;;;22.30;38.00;;;22.92;25.01;99617.97;5010033;28;107533;-86
2022/04/28 12:56:16;;;;;;;2.30;2.10;;;22.30;37.70;;;23.05;25.07;99614.97;4986795;28;124224;-87
2022/04/28 12:58:46;;;;;;;2.43;2.20;;;22.50;37.60;;;23.19;25.14;99609.59;4980387;28;123940;-88
2022/04/28 13:01:17;;;;;;;2.80;2.37;;;24.40;39.60;;;23.35;24.40;99607.44;5002961;28;105728;-87
2022/04/28 13:04:04;;;;;;;3.40;2.53;;;22.70;36.90;;;23.43;23.63;99602.72;4976096;28;106909;-87
2022/04/28 13:06:35;;;;;;;4.23;2.57;;;22.80;35.70;;;23.44;23.20;99603.53;4954010;28;125826;-87
2022/04/28 13:09:03;;;;;;;2.50;2.20;;;22.80;34.90;;;23.43;23.75;99590.59;4962726;28;124267;-87
2022/04/28 13:11:34;;;;;;;5.10;2.43;;;22.80;35.50;;;23.48;23.64;99590.28;4961269;28;107742;-89
2022/04/28 13:14:04;;;;;;;2.90;2.27;;;23.40;36.00;;;23.60;23.63;99590.06;4966909;28;107546;-86
2022/04/28 13:16:31;;;;;;;2.60;2.20;;;23.00;35.80;;;23.74;23.72;99584.66;4965724;28;124079;-88
2022/04/28 13:18:58;;;;;;;2.37;2.17;;;23.10;35.50;;;23.87;23.75;99576.75;4978906;28;124394;-88
2022/04/28 13:21:25;;;;;;;2.97;2.47;;;23.20;35.60;;;24.01;23.61;99576.94;4965213;28;107904;-91
2022/04/28 13:23:52;;;;;;;2.70;1.97;;;23.30;35.60;;;24.17;24.03;99578.75;4965454;28;106605;-88
2022/04/28 13:26:21;;;;;;;2.87;1.93;;;23.50;36.20;;;24.28;23.18;99578.88;4980472;28;123794;-89
2022/04/28 13:28:49;;;;;;;2.30;2.10;;;23.60;35.10;;;24.38;23.71;99578.19;4965110;28;123936;-89
2022/04/28 13:31:16;;;;;;;2.10;1.90;;;23.70;35.90;;;24.53;23.56;99568.69;4958583;28;107840;-87
2022/04/28 13:33:43;;;;;;;2.40;2.20;;;23.80;35.80;;;24.62;22.19;99566.34;4957248;28;107386;-87
2022/04/28 13:36:10;;;;;;;4.00;1.90;;;23.90;33.40;;;24.57;22.48;99572.34;4993195;28;124056;-90
2022/04/28 13:38:37;;;;;;;2.30;2.10;;;24.00;33.30;;;24.62;22.23;99565.56;4964592;28;123897;-87
2022/04/28 13:41:05;;;;;;;2.53;2.17;;;24.00;33.60;;;24.72;22.11;99559.19;4965662;28;107684;-88
2022/04/28 13:43:32;;;;;;;3.73;2.00;;;24.10;33.20;;;24.75;21.88;99566.88;4994205;28;107917;-87
2022/04/28 13:46:04;;;;;;;3.53;2.10;;;24.10;32.50;;;24.77;22.16;99555.19;4961783;28;124063;-86
2022/04/28 13:48:32;;;;;;;2.73;1.97;;;24.20;33.20;;;24.85;22.01;99556.88;4986629;28;122702;-88
2022/04/28 13:51:00;;;;;;;4.60;2.60;;;24.20;33.00;;;24.94;21.44;99548.88;4966922;28;107573;-87
2022/04/28 13:53:29;;;;;;;3.00;2.33;;;24.30;32.10;;;25.04;21.23;99544.50;4961256;28;107460;-87
2022/04/28 13:56:07;;;;;;;1.83;1.70;;;24.40;31.80;;;25.15;21.60;99539.78;4957032;28;124078;-88
2022/04/28 13:58:35;;;;;;;3.20;2.13;;;24.50;32.40;;;25.28;21.99;99543.94;4983333;28;123946;-86
2022/04/28 14:01:03;;;;;;;3.13;2.20;;;24.60;32.70;;;25.38;22.30;99533.88;4961334;28;107640;-87
2022/04/28 14:03:32;;;;;;;2.10;2.00;;;24.70;33.00;;;25.48;21.70;99538.78;4964896;28;107797;-86
2022/04/28 14:06:01;;;;;;;2.27;2.07;;;24.90;33.10;;;25.60;21.77;99534.78;4969026;28;122893;-87
2022/04/28 14:08:28;;;;;;;1.80;1.70;;;24.90;32.60;;;25.72;22.04;99530.81;4975412;28;123774;-86
2022/04/28 14:10:56;;;;;;;3.67;1.80;;;25.10;33.40;;;25.89;22.58;99524.44;4957184;28;107514;-90
2022/04/28 14:13:22;;;;;;;2.27;1.80;;;25.20;33.80;;;26.08;22.47;99523.31;4957833;28;108512;-87
2022/04/28 14:15:49;;;;;;;2.93;1.80;;;25.30;33.70;;;26.21;22.11;99529.41;4966183;28;124551;-85
2022/04/28 14:18:16;;;;;;;4.20;1.90;;;25.50;33.40;;;26.33;22.32;99523.38;4959767;28;124187;-86
2022/04/28 14:20:43;;;;;;;2.03;1.80;;;25.60;33.30;;;26.41;21.90;99522.19;4960736;28;107875;-88
2022/04/28 14:23:11;;;;;;;2.17;1.97;;;25.70;32.80;;;26.47;20.56;99521.78;4962454;28;106418;-86
2022/04/28 14:25:38;;;;;;;3.63;2.57;;;25.80;30.90;;;26.49;21.21;99522.19;4955528;28;124593;-88
2022/04/28 14:28:06;;;;;;;2.03;1.80;;;25.80;31.70;;;26.60;21.50;99521.03;4959804;28;123869;-88
2022/04/28 14:30:33;;;;;;;4.20;2.17;;;25.90;31.80;;;26.66;20.88;99527.09;4957470;28;107347;-86
2022/04/28 14:33:02;;;;;;;3.20;2.00;;;26.00;31.20;;;26.68;20.81;99521.84;4957202;28;107280;-86
2022/04/28 14:35:29;;;;;;;2.63;1.87;;;26.00;31.40;;;26.72;20.95;99514.13;4962979;28;123886;-86
2022/04/28 14:37:55;;;;;;;3.23;2.10;;;26.10;30.80;;;26.72;20.53;99513.34;4955319;28;123915;-87
2022/04/28 14:40:22;;;;;;;2.27;1.93;;;26.10;30.60;;;26.78;21.05;99515.34;4968625;28;107266;-87
2022/04/28 14:42:49;;;;;;;2.60;2.40;;;26.10;30.90;;;26.91;21.02;99512.13;4962142;28;107837;-86
2022/04/28 14:45:17;;;;;;;3.13;1.40;;;26.30;31.40;;;27.05;21.01;99512.91;4956835;28;124148;-86
2022/04/28 14:47:43;;;;;;;2.60;1.70;;;26.40;31.50;;;27.21;20.85;99521.03;4974244;28;123827;-86
2022/04/28 14:52:56;;;;;;;1.73;1.50;;;25.10;29.90;;;27.39;20.69;99517.34;4961860;28;107845;-88
2022/04/28 14:55:23;;;;;;;3.37;1.40;;;26.70;31.20;;;27.55;21.24;99517.72;4956936;28;123981;-88
2022/04/28 14:57:51;;;;;;;2.47;1.50;;;26.80;31.40;;;27.72;20.77;99521.69;4968994;28;123922;-88
2022/04/28 15:00:26;;;;;;;2.77;1.80;;;27.00;31.30;;;27.89;20.52;99522.91;4966692;28;107739;-88
2022/04/28 15:02:52;;;;;;;2.00;1.80;;;27.20;31.10;;;28.00;20.83;99520.81;4969575;28;109278;-87
2022/04/28 15:05:20;;;;;;;2.00;1.80;;;27.30;31.00;;;28.07;20.36;99522.81;4973432;28;123961;-86
2022/04/28 15:07:46;;;;;;;3.10;1.90;;;27.30;30.40;;;28.13;20.44;99523.97;4970958;28;123851;-91
2022/04/28 15:10:14;;;;;;;1.73;1.60;;;27.40;30.10;;;28.24;20.05;99518.22;5001810;28;107031;-86
2022/04/28 15:12:43;;;;;;;1.90;1.80;;;27.60;30.40;;;28.29;20.21;99521.47;4963467;28;107951;-86
2022/04/28 15:15:12;;;;;;;1.60;1.50;;;27.60;30.00;;;28.35;20.43;99521.84;4969543;28;124524;-87
2022/04/28 15:17:39;;;;;;;1.80;1.70;;;27.70;30.20;;;28.40;19.58;99529.94;4972758;28;124368;-87
2022/04/28 15:20:09;;;;;;;1.53;1.40;;;27.70;29.50;;;28.36;19.94;99529.13;4971198;28;107755;-87
2022/04/28 15:22:38;;;;;;;1.60;1.50;;;27.80;29.70;;;28.42;20.06;99524.63;4959172;28;109130;-86
2022/04/28 15:25:11;;;;;;;2.00;1.80;;;27.80;30.00;;;28.50;19.92;99523.38;4985496;28;123178;-87